sensor_id;sensor_type;location;lat;lon;timestamp;temperature;humidity
30385;DHT22;17181;51.002;4.096;2023-02-23T00:01:40;10.50;99.90
30385;DHT22;17181;51.002;4.096;2023-02-23T00:04:07;10.50;99.90
30385;DHT22;17181;51.002;4.096;2023-02-23T00:06:34;10.40;99.90
30385;DHT22;17181;51.002;4.096;2023-02-23T00:09:00;10.40;99.90
30385;DHT22;17181;51.002;4.096;2023-02-23T00:11:27;10.40;99.90
30385;DHT22;17181;51.002;4.096;2023-02-23T00:13:53;10.40;99.90
30385;DHT22;17181;51.002;4.096;2023-02-23T00:16:25;10.40;99.90
30385;DHT22;17181;51.002;4.096;2023-02-23T00:18:53;10.40;99.90
30385;DHT22;17181;51.002;4.096;2023-02-23T00:23:54;10.30;99.90
30385;DHT22;17181;51.002;4.096;2023-02-23T00:26:21;10.30;99.90
30385;DHT22;17181;51.002;4.096;2023-02-23T00:28:48;10.30;99.90
30385;DHT22;17181;51.002;4.096;2023-02-23T00:31:15;10.30;99.90
30385;DHT22;17181;51.002;4.096;2023-02-23T00:33:43;10.30;99.90
30385;DHT22;17181;51.002;4.096;2023-02-23T00:36:12;10.30;99.90
30385;DHT22;17181;51.002;4.096;2023-02-23T00:38:39;10.30;99.90
30385;DHT22;17181;51.002;4.096;2023-02-23T00:41:10;10.30;99.90
30385;DHT22;17181;51.002;4.096;2023-02-23T00:43:40;10.30;99.90
30385;DHT22;17181;51.002;4.096;2023-02-23T00:46:16;10.30;99.90
30385;DHT22;17181;51.002;4.096;2023-02-23T00:48:47;10.30;99.90
30385;DHT22;17181;51.002;4.096;2023-02-23T00:51:14;10.30;99.90
30385;DHT22;17181;51.002;4.096;2023-02-23T00:53:44;10.20;99.90
30385;DHT22;17181;51.002;4.096;2023-02-23T00:56:12;10.20;99.90
30385;DHT22;17181;51.002;4.096;2023-02-23T00:58:38;10.20;99.90
30385;DHT22;17181;51.002;4.096;2023-02-23T01:01:06;10.20;99.90
30385;DHT22;17181;51.002;4.096;2023-02-23T01:03:32;10.20;99.90
30385;DHT22;17181;51.002;4.096;2023-02-23T01:06:03;10.20;99.90
30385;DHT22;17181;51.002;4.096;2023-02-23T01:08:35;10.20;99.90
30385;DHT22;17181;51.002;4.096;2023-02-23T01:11:09;10.20;99.90
30385;DHT22;17181;51.002;4.096;2023-02-23T01:13:36;10.20;99.90
30385;DHT22;17181;51.002;4.096;2023-02-23T01:16:07;10.20;99.90
30385;DHT22;17181;51.002;4.096;2023-02-23T01:18:34;10.20;99.90
30385;DHT22;17181;51.002;4.096;2023-02-23T01:21:01;10.20;99.90
30385;DHT22;17181;51.002;4.096;2023-02-23T01:23:27;10.20;99.90
30385;DHT22;17181;51.002;4.096;2023-02-23T01:25:53;10.20;99.90
30385;DHT22;17181;51.002;4.096;2023-02-23T01:28:18;10.20;99.90
30385;DHT22;17181;51.002;4.096;2023-02-23T01:30:44;10.20;99.90
30385;DHT22;17181;51.002;4.096;2023-02-23T01:33:10;10.20;99.90
30385;DHT22;17181;51.002;4.096;2023-02-23T01:35:37;10.20;99.90
30385;DHT22;17181;51.002;4.096;2023-02-23T01:38:03;10.20;99.90
30385;DHT22;17181;51.002;4.096;2023-02-23T01:40:29;10.20;99.90
30385;DHT22;17181;51.002;4.096;2023-02-23T01:43:09;10.10;99.90
30385;DHT22;17181;51.002;4.096;2023-02-23T01:45:37;10.10;99.90
30385;DHT22;17181;51.002;4.096;2023-02-23T01:48:16;10.10;99.90
30385;DHT22;17181;51.002;4.096;2023-02-23T01:51:03;10.10;99.90
30385;DHT22;17181;51.002;4.096;2023-02-23T01:53:35;10.10;99.90
30385;DHT22;17181;51.002;4.096;2023-02-23T01:56:10;10.10;99.90
30385;DHT22;17181;51.002;4.096;2023-02-23T01:58:44;10.10;99.90
30385;DHT22;17181;51.002;4.096;2023-02-23T02:01:10;10.10;99.90
30385;DHT22;17181;51.002;4.096;2023-02-23T02:03:44;10.00;99.90
30385;DHT22;17181;51.002;4.096;2023-02-23T02:06:12;10.00;99.90
30385;DHT22;17181;51.002;4.096;2023-02-23T02:08:44;10.00;99.90
30385;DHT22;17181;51.002;4.096;2023-02-23T02:11:16;9.90;99.90
30385;DHT22;17181;51.002;4.096;2023-02-23T02:14:07;9.90;99.90
30385;DHT22;17181;51.002;4.096;2023-02-23T02:22:45;9.80;99.90
30385;DHT22;17181;51.002;4.096;2023-02-23T02:39:40;9.80;99.90
30385;DHT22;17181;51.002;4.096;2023-02-23T02:42:28;9.80;99.90
30385;DHT22;17181;51.002;4.096;2023-02-23T02:45:19;9.80;99.90
30385;DHT22;17181;51.002;4.096;2023-02-23T02:48:05;9.80;99.90
30385;DHT22;17181;51.002;4.096;2023-02-23T02:53:54;9.80;99.90
30385;DHT22;17181;51.002;4.096;2023-02-23T02:56:24;9.80;99.90
30385;DHT22;17181;51.002;4.096;2023-02-23T02:58:52;9.80;99.90
30385;DHT22;17181;51.002;4.096;2023-02-23T03:01:19;9.70;99.90
30385;DHT22;17181;51.002;4.096;2023-02-23T03:04:23;9.70;99.90
30385;DHT22;17181;51.002;4.096;2023-02-23T03:07:19;9.80;99.90
30385;DHT22;17181;51.002;4.096;2023-02-23T03:10:13;9.80;99.90
30385;DHT22;17181;51.002;4.096;2023-02-23T03:21:55;9.80;99.90
30385;DHT22;17181;51.002;4.096;2023-02-23T03:25:23;9.80;99.90
30385;DHT22;17181;51.002;4.096;2023-02-23T03:28:29;9.80;99.90
30385;DHT22;17181;51.002;4.096;2023-02-23T03:31:26;9.80;99.90
30385;DHT22;17181;51.002;4.096;2023-02-23T03:39:55;9.80;99.90
30385;DHT22;17181;51.002;4.096;2023-02-23T03:42:42;9.80;99.90
30385;DHT22;17181;51.002;4.096;2023-02-23T03:45:29;9.80;99.90
30385;DHT22;17181;51.002;4.096;2023-02-23T03:48:16;9.70;99.90
30385;DHT22;17181;51.002;4.096;2023-02-23T03:51:06;9.70;99.90
30385;DHT22;17181;51.002;4.096;2023-02-23T03:54:02;9.70;99.90
30385;DHT22;17181;51.002;4.096;2023-02-23T03:56:53;9.70;99.90
30385;DHT22;17181;51.002;4.096;2023-02-23T03:59:43;9.80;99.90
30385;DHT22;17181;51.002;4.096;2023-02-23T04:02:40;9.80;99.90
30385;DHT22;17181;51.002;4.096;2023-02-23T04:05:25;9.80;99.90
30385;DHT22;17181;51.002;4.096;2023-02-23T04:08:14;9.80;99.90
30385;DHT22;17181;51.002;4.096;2023-02-23T04:11:17;9.80;99.90
30385;DHT22;17181;51.002;4.096;2023-02-23T04:14:05;9.80;99.90
30385;DHT22;17181;51.002;4.096;2023-02-23T04:16:32;9.80;99.90
30385;DHT22;17181;51.002;4.096;2023-02-23T04:18:58;9.80;99.90
30385;DHT22;17181;51.002;4.096;2023-02-23T04:21:24;9.80;99.90
30385;DHT22;17181;51.002;4.096;2023-02-23T04:23:50;9.80;99.90
30385;DHT22;17181;51.002;4.096;2023-02-23T04:26:16;9.80;99.90
30385;DHT22;17181;51.002;4.096;2023-02-23T04:28:42;9.80;99.90
30385;DHT22;17181;51.002;4.096;2023-02-23T04:31:07;9.80;99.90
30385;DHT22;17181;51.002;4.096;2023-02-23T04:33:33;9.80;99.90
30385;DHT22;17181;51.002;4.096;2023-02-23T04:35:59;9.80;99.90
30385;DHT22;17181;51.002;4.096;2023-02-23T04:38:24;9.80;99.90
30385;DHT22;17181;51.002;4.096;2023-02-23T04:40:50;9.80;99.90
30385;DHT22;17181;51.002;4.096;2023-02-23T04:43:16;9.80;99.90
30385;DHT22;17181;51.002;4.096;2023-02-23T04:45:43;9.80;99.90
30385;DHT22;17181;51.002;4.096;2023-02-23T04:48:09;9.90;99.90
30385;DHT22;17181;51.002;4.096;2023-02-23T04:50:34;9.80;99.90
30385;DHT22;17181;51.002;4.096;2023-02-23T04:53:00;9.80;99.90
30385;DHT22;17181;51.002;4.096;2023-02-23T04:55:26;9.90;99.90
30385;DHT22;17181;51.002;4.096;2023-02-23T04:57:56;9.90;99.90
30385;DHT22;17181;51.002;4.096;2023-02-23T05:00:24;9.90;99.90
30385;DHT22;17181;51.002;4.096;2023-02-23T05:02:49;9.90;99.90
30385;DHT22;17181;51.002;4.096;2023-02-23T05:05:16;9.90;99.90
30385;DHT22;17181;51.002;4.096;2023-02-23T05:07:41;9.90;99.90
30385;DHT22;17181;51.002;4.096;2023-02-23T05:10:08;9.90;99.90
30385;DHT22;17181;51.002;4.096;2023-02-23T05:12:35;9.90;99.90
30385;DHT22;17181;51.002;4.096;2023-02-23T05:15:01;9.80;99.90
30385;DHT22;17181;51.002;4.096;2023-02-23T05:17:26;9.80;99.90
30385;DHT22;17181;51.002;4.096;2023-02-23T05:19:53;9.80;99.90
30385;DHT22;17181;51.002;4.096;2023-02-23T05:22:18;9.80;99.90
30385;DHT22;17181;51.002;4.096;2023-02-23T05:24:44;9.80;99.90
30385;DHT22;17181;51.002;4.096;2023-02-23T05:27:10;9.80;99.90
30385;DHT22;17181;51.002;4.096;2023-02-23T05:29:38;9.80;99.90
30385;DHT22;17181;51.002;4.096;2023-02-23T05:32:04;9.80;99.90
30385;DHT22;17181;51.002;4.096;2023-02-23T05:34:30;9.80;99.90
30385;DHT22;17181;51.002;4.096;2023-02-23T05:36:55;9.80;99.90
30385;DHT22;17181;51.002;4.096;2023-02-23T05:39:21;9.80;99.90
30385;DHT22;17181;51.002;4.096;2023-02-23T05:41:47;9.80;99.90
30385;DHT22;17181;51.002;4.096;2023-02-23T05:44:13;9.80;99.90
30385;DHT22;17181;51.002;4.096;2023-02-23T05:46:38;9.80;99.90
30385;DHT22;17181;51.002;4.096;2023-02-23T05:49:04;9.80;99.90
30385;DHT22;17181;51.002;4.096;2023-02-23T05:51:32;9.80;99.90
30385;DHT22;17181;51.002;4.096;2023-02-23T05:53:58;9.80;99.90
30385;DHT22;17181;51.002;4.096;2023-02-23T05:56:25;9.80;99.90
30385;DHT22;17181;51.002;4.096;2023-02-23T05:58:53;9.80;99.90
30385;DHT22;17181;51.002;4.096;2023-02-23T06:01:20;9.90;99.90
30385;DHT22;17181;51.002;4.096;2023-02-23T06:03:47;9.90;99.90
30385;DHT22;17181;51.002;4.096;2023-02-23T06:06:13;9.90;99.90
30385;DHT22;17181;51.002;4.096;2023-02-23T06:08:39;9.80;99.90
30385;DHT22;17181;51.002;4.096;2023-02-23T06:11:05;9.80;99.90
30385;DHT22;17181;51.002;4.096;2023-02-23T06:13:31;9.80;99.90
30385;DHT22;17181;51.002;4.096;2023-02-23T06:15:58;9.80;99.90
30385;DHT22;17181;51.002;4.096;2023-02-23T06:18:24;9.70;99.90
30385;DHT22;17181;51.002;4.096;2023-02-23T06:20:50;9.70;99.90
30385;DHT22;17181;51.002;4.096;2023-02-23T06:23:17;9.70;99.90
30385;DHT22;17181;51.002;4.096;2023-02-23T06:25:44;9.70;99.90
30385;DHT22;17181;51.002;4.096;2023-02-23T06:28:10;9.70;99.90
30385;DHT22;17181;51.002;4.096;2023-02-23T06:30:36;9.70;99.90
30385;DHT22;17181;51.002;4.096;2023-02-23T06:33:03;9.70;99.90
30385;DHT22;17181;51.002;4.096;2023-02-23T06:35:29;9.60;99.90
30385;DHT22;17181;51.002;4.096;2023-02-23T06:37:55;9.60;99.90
30385;DHT22;17181;51.002;4.096;2023-02-23T06:40:21;9.60;99.90
30385;DHT22;17181;51.002;4.096;2023-02-23T06:42:47;9.60;99.90
30385;DHT22;17181;51.002;4.096;2023-02-23T06:45:13;9.60;99.90
30385;DHT22;17181;51.002;4.096;2023-02-23T06:47:39;9.60;99.90
30385;DHT22;17181;51.002;4.096;2023-02-23T06:50:08;9.60;99.90
30385;DHT22;17181;51.002;4.096;2023-02-23T06:52:34;9.50;99.90
30385;DHT22;17181;51.002;4.096;2023-02-23T06:55:00;9.50;99.90
30385;DHT22;17181;51.002;4.096;2023-02-23T06:57:26;9.50;99.90
30385;DHT22;17181;51.002;4.096;2023-02-23T06:59:51;9.40;99.90
30385;DHT22;17181;51.002;4.096;2023-02-23T07:02:18;9.40;99.90
30385;DHT22;17181;51.002;4.096;2023-02-23T07:04:43;9.30;99.90
30385;DHT22;17181;51.002;4.096;2023-02-23T07:07:09;9.30;99.90
30385;DHT22;17181;51.002;4.096;2023-02-23T07:09:35;9.30;99.90
30385;DHT22;17181;51.002;4.096;2023-02-23T07:12:01;9.30;99.90
30385;DHT22;17181;51.002;4.096;2023-02-23T07:14:28;9.30;99.90
30385;DHT22;17181;51.002;4.096;2023-02-23T07:16:54;9.30;99.90
30385;DHT22;17181;51.002;4.096;2023-02-23T07:19:20;9.30;99.90
30385;DHT22;17181;51.002;4.096;2023-02-23T07:21:46;9.40;99.90
30385;DHT22;17181;51.002;4.096;2023-02-23T07:24:11;9.40;99.90
30385;DHT22;17181;51.002;4.096;2023-02-23T07:26:37;9.40;99.90
30385;DHT22;17181;51.002;4.096;2023-02-23T07:29:05;9.50;99.90
30385;DHT22;17181;51.002;4.096;2023-02-23T07:31:31;9.40;99.90
30385;DHT22;17181;51.002;4.096;2023-02-23T07:33:56;9.40;99.90
30385;DHT22;17181;51.002;4.096;2023-02-23T07:36:22;9.50;99.90
30385;DHT22;17181;51.002;4.096;2023-02-23T07:38:49;9.50;99.90
30385;DHT22;17181;51.002;4.096;2023-02-23T07:41:14;9.50;99.90
30385;DHT22;17181;51.002;4.096;2023-02-23T07:43:40;9.50;99.90
30385;DHT22;17181;51.002;4.096;2023-02-23T07:46:06;9.50;99.90
30385;DHT22;17181;51.002;4.096;2023-02-23T07:48:33;9.60;99.90
30385;DHT22;17181;51.002;4.096;2023-02-23T07:50:59;9.60;99.90
30385;DHT22;17181;51.002;4.096;2023-02-23T07:53:25;9.60;99.90
30385;DHT22;17181;51.002;4.096;2023-02-23T07:55:59;9.60;99.90
30385;DHT22;17181;51.002;4.096;2023-02-23T07:58:25;9.70;99.90
30385;DHT22;17181;51.002;4.096;2023-02-23T08:00:51;9.70;99.90
30385;DHT22;17181;51.002;4.096;2023-02-23T08:03:17;9.70;99.90
30385;DHT22;17181;51.002;4.096;2023-02-23T08:05:43;9.80;99.90
30385;DHT22;17181;51.002;4.096;2023-02-23T08:08:09;9.80;99.90
30385;DHT22;17181;51.002;4.096;2023-02-23T08:10:36;9.90;99.90
30385;DHT22;17181;51.002;4.096;2023-02-23T08:13:02;9.90;99.90
30385;DHT22;17181;51.002;4.096;2023-02-23T08:15:28;9.90;99.90
30385;DHT22;17181;51.002;4.096;2023-02-23T08:17:54;9.90;99.90
30385;DHT22;17181;51.002;4.096;2023-02-23T08:20:20;9.90;99.90
30385;DHT22;17181;51.002;4.096;2023-02-23T08:22:46;9.90;99.90
30385;DHT22;17181;51.002;4.096;2023-02-23T08:25:11;10.00;99.90
30385;DHT22;17181;51.002;4.096;2023-02-23T08:27:38;10.00;99.90
30385;DHT22;17181;51.002;4.096;2023-02-23T08:30:05;10.10;99.90
30385;DHT22;17181;51.002;4.096;2023-02-23T08:32:34;10.10;99.90
30385;DHT22;17181;51.002;4.096;2023-02-23T08:35:00;10.20;99.90
30385;DHT22;17181;51.002;4.096;2023-02-23T08:37:29;10.20;99.90
30385;DHT22;17181;51.002;4.096;2023-02-23T08:39:55;10.30;99.90
30385;DHT22;17181;51.002;4.096;2023-02-23T08:42:22;10.30;99.90
30385;DHT22;17181;51.002;4.096;2023-02-23T08:44:47;10.40;99.90
30385;DHT22;17181;51.002;4.096;2023-02-23T08:47:15;10.40;99.90
30385;DHT22;17181;51.002;4.096;2023-02-23T08:49:42;10.40;99.90
30385;DHT22;17181;51.002;4.096;2023-02-23T08:52:08;10.50;99.90
30385;DHT22;17181;51.002;4.096;2023-02-23T08:54:33;10.50;99.90
30385;DHT22;17181;51.002;4.096;2023-02-23T08:56:59;10.50;99.90
30385;DHT22;17181;51.002;4.096;2023-02-23T08:59:25;10.50;99.90
30385;DHT22;17181;51.002;4.096;2023-02-23T09:01:51;10.60;99.90
30385;DHT22;17181;51.002;4.096;2023-02-23T09:04:17;10.60;99.90
30385;DHT22;17181;51.002;4.096;2023-02-23T09:06:44;10.60;99.90
30385;DHT22;17181;51.002;4.096;2023-02-23T09:09:10;10.60;99.90
30385;DHT22;17181;51.002;4.096;2023-02-23T09:11:36;10.60;99.90
30385;DHT22;17181;51.002;4.096;2023-02-23T09:14:02;10.60;99.90
30385;DHT22;17181;51.002;4.096;2023-02-23T09:16:27;10.60;99.90
30385;DHT22;17181;51.002;4.096;2023-02-23T09:18:53;10.60;99.90
30385;DHT22;17181;51.002;4.096;2023-02-23T09:21:20;10.60;99.90
30385;DHT22;17181;51.002;4.096;2023-02-23T09:23:50;10.60;99.90
30385;DHT22;17181;51.002;4.096;2023-02-23T09:26:17;10.60;99.90
30385;DHT22;17181;51.002;4.096;2023-02-23T09:28:44;10.60;99.90
30385;DHT22;17181;51.002;4.096;2023-02-23T09:31:13;10.60;99.90
30385;DHT22;17181;51.002;4.096;2023-02-23T09:33:39;10.60;99.90
30385;DHT22;17181;51.002;4.096;2023-02-23T09:36:12;10.70;99.90
30385;DHT22;17181;51.002;4.096;2023-02-23T09:38:44;10.70;99.90
30385;DHT22;17181;51.002;4.096;2023-02-23T09:44:35;10.80;99.90
30385;DHT22;17181;51.002;4.096;2023-02-23T09:47:14;10.90;99.90
30385;DHT22;17181;51.002;4.096;2023-02-23T09:49:44;11.00;99.90
30385;DHT22;17181;51.002;4.096;2023-02-23T09:52:35;11.00;99.90
30385;DHT22;17181;51.002;4.096;2023-02-23T09:55:03;11.10;99.90
30385;DHT22;17181;51.002;4.096;2023-02-23T09:57:37;11.10;99.90
30385;DHT22;17181;51.002;4.096;2023-02-23T10:00:16;11.20;99.90
30385;DHT22;17181;51.002;4.096;2023-02-23T10:05:22;11.40;99.90
30385;DHT22;17181;51.002;4.096;2023-02-23T10:11:22;11.50;99.90
30385;DHT22;17181;51.002;4.096;2023-02-23T10:14:13;11.60;99.90
30385;DHT22;17181;51.002;4.096;2023-02-23T10:22:03;11.80;99.90
30385;DHT22;17181;51.002;4.096;2023-02-23T10:24:39;11.80;99.90
30385;DHT22;17181;51.002;4.096;2023-02-23T10:27:18;11.80;99.90
30385;DHT22;17181;51.002;4.096;2023-02-23T10:32:49;11.80;99.90
30385;DHT22;17181;51.002;4.096;2023-02-23T10:35:19;11.80;99.90
30385;DHT22;17181;51.002;4.096;2023-02-23T10:37:50;11.80;99.90
30385;DHT22;17181;51.002;4.096;2023-02-23T10:40:25;11.80;99.90
30385;DHT22;17181;51.002;4.096;2023-02-23T10:42:54;11.90;99.90
30385;DHT22;17181;51.002;4.096;2023-02-23T10:45:22;11.90;99.90
30385;DHT22;17181;51.002;4.096;2023-02-23T10:47:56;11.90;99.90
30385;DHT22;17181;51.002;4.096;2023-02-23T10:50:23;11.90;99.90
30385;DHT22;17181;51.002;4.096;2023-02-23T10:53:03;11.90;99.90
30385;DHT22;17181;51.002;4.096;2023-02-23T10:55:34;11.90;99.90
30385;DHT22;17181;51.002;4.096;2023-02-23T10:58:20;11.90;99.90
30385;DHT22;17181;51.002;4.096;2023-02-23T11:01:00;11.80;99.90
30385;DHT22;17181;51.002;4.096;2023-02-23T11:05:58;11.80;99.90
30385;DHT22;17181;51.002;4.096;2023-02-23T11:08:34;11.90;99.90
30385;DHT22;17181;51.002;4.096;2023-02-23T11:13:42;11.90;99.90
30385;DHT22;17181;51.002;4.096;2023-02-23T11:16:11;11.90;99.90
30385;DHT22;17181;51.002;4.096;2023-02-23T11:18:50;11.90;99.90
30385;DHT22;17181;51.002;4.096;2023-02-23T11:21:32;11.90;99.90
30385;DHT22;17181;51.002;4.096;2023-02-23T11:24:45;11.90;99.90
30385;DHT22;17181;51.002;4.096;2023-02-23T11:26:47;11.90;99.90
30385;DHT22;17181;51.002;4.096;2023-02-23T11:29:26;11.90;99.90
30385;DHT22;17181;51.002;4.096;2023-02-23T11:31:57;12.00;99.90
30385;DHT22;17181;51.002;4.096;2023-02-23T11:34:28;12.00;99.90
30385;DHT22;17181;51.002;4.096;2023-02-23T11:37:04;12.00;99.90
30385;DHT22;17181;51.002;4.096;2023-02-23T11:39:30;12.00;99.90
30385;DHT22;17181;51.002;4.096;2023-02-23T11:42:16;11.90;99.90
30385;DHT22;17181;51.002;4.096;2023-02-23T11:44:50;12.00;99.90
30385;DHT22;17181;51.002;4.096;2023-02-23T11:47:18;11.90;99.90
30385;DHT22;17181;51.002;4.096;2023-02-23T11:49:46;11.90;99.90
30385;DHT22;17181;51.002;4.096;2023-02-23T11:52:19;11.80;99.90
30385;DHT22;17181;51.002;4.096;2023-02-23T11:54:58;11.80;99.90
30385;DHT22;17181;51.002;4.096;2023-02-23T11:57:29;11.80;99.90
30385;DHT22;17181;51.002;4.096;2023-02-23T11:59:57;11.80;99.90
30385;DHT22;17181;51.002;4.096;2023-02-23T12:02:29;11.80;99.90
30385;DHT22;17181;51.002;4.096;2023-02-23T12:07:38;11.70;99.90
30385;DHT22;17181;51.002;4.096;2023-02-23T12:10:38;11.70;99.90
30385;DHT22;17181;51.002;4.096;2023-02-23T12:13:32;11.70;99.90
30385;DHT22;17181;51.002;4.096;2023-02-23T12:16:22;11.70;99.90
30385;DHT22;17181;51.002;4.096;2023-02-23T12:19:03;11.70;99.90
30385;DHT22;17181;51.002;4.096;2023-02-23T12:21:38;11.70;99.90
30385;DHT22;17181;51.002;4.096;2023-02-23T12:26:46;11.60;99.90
30385;DHT22;17181;51.002;4.096;2023-02-23T12:29:37;11.70;99.90
30385;DHT22;17181;51.002;4.096;2023-02-23T12:32:26;11.80;99.90
30385;DHT22;17181;51.002;4.096;2023-02-23T12:35:12;11.90;99.90
30385;DHT22;17181;51.002;4.096;2023-02-23T12:37:50;11.90;99.90
30385;DHT22;17181;51.002;4.096;2023-02-23T12:40:29;11.90;99.90
30385;DHT22;17181;51.002;4.096;2023-02-23T12:43:20;11.90;99.90
30385;DHT22;17181;51.002;4.096;2023-02-23T12:52:21;12.00;99.90
30385;DHT22;17181;51.002;4.096;2023-02-23T12:54:50;12.10;99.90
30385;DHT22;17181;51.002;4.096;2023-02-23T12:57:30;12.10;99.90
30385;DHT22;17181;51.002;4.096;2023-02-23T13:08:48;12.40;99.90
30385;DHT22;17181;51.002;4.096;2023-02-23T13:19:17;12.50;99.90
30385;DHT22;17181;51.002;4.096;2023-02-23T13:24:36;12.40;99.90
30385;DHT22;17181;51.002;4.096;2023-02-23T13:29:44;12.30;99.90
30385;DHT22;17181;51.002;4.096;2023-02-23T13:32:21;12.30;99.90
30385;DHT22;17181;51.002;4.096;2023-02-23T13:34:56;12.30;99.90
30385;DHT22;17181;51.002;4.096;2023-02-23T13:51:37;12.30;99.90
30385;DHT22;17181;51.002;4.096;2023-02-23T13:56:47;12.20;99.90
30385;DHT22;17181;51.002;4.096;2023-02-23T13:59:19;12.10;99.90
30385;DHT22;17181;51.002;4.096;2023-02-23T14:01:49;12.10;99.90
30385;DHT22;17181;51.002;4.096;2023-02-23T14:04:22;12.20;99.90
30385;DHT22;17181;51.002;4.096;2023-02-23T14:07:03;12.30;99.90
30385;DHT22;17181;51.002;4.096;2023-02-23T14:09:57;12.50;99.90
30385;DHT22;17181;51.002;4.096;2023-02-23T14:14:50;12.60;99.90
30385;DHT22;17181;51.002;4.096;2023-02-23T14:22:35;12.50;99.90
30385;DHT22;17181;51.002;4.096;2023-02-23T14:28:13;12.30;99.90
30385;DHT22;17181;51.002;4.096;2023-02-23T14:33:56;12.20;99.90
30385;DHT22;17181;51.002;4.096;2023-02-23T14:38:50;12.20;99.90
30385;DHT22;17181;51.002;4.096;2023-02-23T14:41:23;12.30;99.90
30385;DHT22;17181;51.002;4.096;2023-02-23T14:43:59;12.60;99.90
30385;DHT22;17181;51.002;4.096;2023-02-23T14:46:31;13.00;99.90
